Time;durP1;ratioP1;P1;durP2;ratioP2;P2;SDS_P1;SDS_P2;PMS_P1;PMS_P2;Temp;Humidity;BMP_temperature;BMP_pressure;BME280_temperature;BME280_humidity;BME280_pressure;Samples;Min_cycle;Max_cycle;Signal;HPM_P1;HPM_P2
2022/10/03 00:01:59;;;;;;;;;21.50;17.25;;;;;14.43;67.84;102345.72;5016393;28;46022;-76
2022/10/03 00:04:42;;;;;;;;;14.00;14.00;;;;;14.41;67.98;102352.81;5034811;28;45370;-75
2022/10/03 00:07:15;;;;;;;;;14.50;14.25;;;;;14.37;67.88;102341.28;5039643;28;45527;-75
2022/10/03 00:09:50;;;;;;;;;9.00;9.00;;;;;14.39;67.69;102350.13;5036875;28;45184;-75
2022/10/03 00:12:58;;;;;;;;;17.00;17.00;;;;;14.33;68.88;102348.34;5037790;28;46357;-76
2022/10/03 00:15:27;;;;;;;;;19.25;18.00;;;;;14.37;69.19;102359.81;5046755;28;45828;-76
2022/10/03 00:18:18;;;;;;;;;15.50;14.75;;;;;14.39;69.63;102363.38;5033463;28;45288;-76
2022/10/03 00:21:08;;;;;;;;;16.25;15.00;;;;;14.40;69.80;102356.31;5039032;28;45832;-76
2022/10/03 00:23:40;;;;;;;;;18.00;17.25;;;;;14.37;69.64;102340.41;5034042;28;47523;-76
2022/10/03 00:26:43;;;;;;;;;18.00;17.00;;;;;14.43;69.58;102356.31;5024945;28;45340;-75
2022/10/03 00:29:27;;;;;;;;;15.25;15.25;;;;;14.40;68.87;102351.91;5038065;28;45505;-76
2022/10/03 00:32:10;;;;;;;;;20.50;17.75;;;;;14.32;68.70;102354.50;5038649;28;46151;-76
2022/10/03 00:34:59;;;;;;;;;13.75;10.25;;;;;14.33;68.79;102356.28;5031888;28;45197;-76
2022/10/03 00:37:49;;;;;;;;;15.00;14.50;;;;;14.31;69.08;102368.63;5036851;28;45473;-75
2022/10/03 00:40:33;;;;;;;;;21.25;17.75;;;;;14.28;69.07;102363.31;5038702;28;45538;-76
2022/10/03 00:43:10;;;;;;;;;15.25;15.00;;;;;14.25;69.27;102365.94;5042076;28;45503;-76
2022/10/03 00:45:54;;;;;;;;;15.50;15.00;;;;;14.25;69.43;102373.00;5041820;28;45480;-76
2022/10/03 00:48:47;;;;;;;;;22.25;19.00;;;;;14.23;68.71;102369.44;5040510;28;45438;-76
2022/10/03 00:51:38;;;;;;;;;19.00;19.00;;;;;14.22;69.16;102365.91;5043212;28;45400;-76
2022/10/03 00:54:19;;;;;;;;;15.50;13.50;;;;;14.19;69.68;102355.28;5040676;28;45388;-76
2022/10/03 00:57:06;;;;;;;;;15.50;15.50;;;;;14.22;70.03;102359.72;5042001;28;45285;-76
2022/10/03 00:59:39;;;;;;;;;14.75;14.50;;;;;14.26;69.59;102369.47;5040545;28;45348;-76
2022/10/03 01:02:36;;;;;;;;;15.75;14.25;;;;;14.24;69.79;102366.78;5040402;28;45205;-76
2022/10/03 01:05:44;;;;;;;;;18.25;17.75;;;;;14.23;69.53;102364.16;5041886;28;45562;-75
2022/10/03 01:09:03;;;;;;;;;21.75;21.25;;;;;14.20;69.50;102361.50;5041498;28;46072;-76
2022/10/03 01:11:53;;;;;;;;;19.75;18.75;;;;;14.16;69.36;102365.84;5040584;28;45281;-76
2022/10/03 01:14:37;;;;;;;;;15.00;13.50;;;;;14.13;69.39;102363.19;5041474;28;45512;-76
2022/10/03 01:17:19;;;;;;;;;15.00;15.00;;;;;14.07;69.40;102353.44;5037978;28;45366;-76
2022/10/03 01:20:23;;;;;;;;;22.25;17.00;;;;;14.06;69.54;102361.34;5029864;28;45248;-75
2022/10/03 01:23:17;;;;;;;;;17.75;16.75;;;;;14.03;69.74;102364.91;5028471;28;45252;-75
2022/10/03 01:26:05;;;;;;;;;20.00;17.00;;;;;13.99;69.13;102376.31;5041584;28;45557;-76
2022/10/03 01:31:36;;;;;;;;;18.25;17.25;;;;;13.95;69.58;102376.28;5041020;28;45211;-76
2022/10/03 01:34:15;;;;;;;;;21.50;21.00;;;;;13.95;69.91;102360.38;5041309;28;45258;-75
2022/10/03 01:37:12;;;;;;;;;19.75;19.50;;;;;14.02;70.06;102362.22;5040389;28;45517;-76
2022/10/03 01:39:49;;;;;;;;;19.25;16.50;;;;;14.04;70.12;102361.38;5032346;28;45443;-76
2022/10/03 01:42:35;;;;;;;;;20.75;20.00;;;;;14.01;69.68;102352.53;5041226;28;45233;-76
2022/10/03 01:45:11;;;;;;;;;20.00;20.00;;;;;14.09;70.02;102362.28;5039799;28;45224;-76
2022/10/03 01:47:48;;;;;;;;;18.75;18.00;;;;;14.10;70.46;102357.88;5039706;28;45374;-76
2022/10/03 01:50:19;;;;;;;;;21.00;18.75;;;;;14.16;70.43;102363.22;5039843;28;45604;-76
2022/10/03 01:53:03;;;;;;;;;20.25;18.75;;;;;14.12;70.55;102346.41;5040465;28;46569;-76
2022/10/03 01:55:53;;;;;;;;;21.25;18.00;;;;;14.25;70.32;102355.34;5032056;28;45288;-76
2022/10/03 01:58:25;;;;;;;;;14.75;14.75;;;;;14.24;70.51;102358.84;5036670;28;45335;-76
2022/10/03 02:01:20;;;;;;;;;17.50;15.75;;;;;14.27;69.98;102357.97;5039878;28;45467;-76
2022/10/03 02:04:03;;;;;;;;;19.75;19.25;;;;;14.23;69.71;102356.22;5031118;28;47235;-76
2022/10/03 02:06:43;;;;;;;;;17.50;17.00;;;;;14.28;70.24;102358.00;5039784;28;45265;-76
2022/10/03 02:09:18;;;;;;;;;19.25;18.50;;;;;14.26;69.83;102345.63;5039520;28;45390;-76
2022/10/03 02:11:49;;;;;;;;;20.75;20.00;;;;;14.33;69.77;102356.28;5040990;28;45258;-76
2022/10/03 02:14:33;;;;;;;;;19.50;18.50;;;;;14.40;69.97;102353.66;5039247;28;46287;-76
2022/10/03 02:17:07;;;;;;;;;17.00;17.00;;;;;14.42;70.22;102344.84;5036670;28;45211;-76
2022/10/03 02:19:47;;;;;;;;;21.00;19.75;;;;;14.43;70.24;102348.38;5040976;28;45270;-76
2022/10/03 02:22:27;;;;;;;;;18.00;16.75;;;;;14.45;70.40;102350.16;5040598;28;45497;-76
2022/10/03 02:25:04;;;;;;;;;19.75;18.00;;;;;14.49;69.96;102353.75;5033563;28;45469;-75
2022/10/03 02:28:07;;;;;;;;;21.25;18.75;;;;;14.52;69.93;102349.38;5042814;28;45292;-76
2022/10/03 02:31:13;;;;;;;;;19.75;19.25;;;;;14.54;70.37;102352.91;5040247;28;45574;-76
2022/10/03 02:34:15;;;;;;;;;19.75;19.00;;;;;14.57;70.17;102354.69;5039240;28;45813;-76
2022/10/03 02:37:13;;;;;;;;;16.75;16.25;;;;;14.53;70.47;102337.00;5039058;28;46994;-76
2022/10/03 02:40:00;;;;;;;;;18.25;17.25;;;;;14.60;70.13;102344.13;5046848;28;45379;-76
2022/10/03 02:42:31;;;;;;;;;19.50;16.50;;;;;14.60;70.16;102348.53;5040327;28;45293;-75
2022/10/03 02:45:23;;;;;;;;;16.50;15.50;;;;;14.61;70.13;102352.94;5040125;28;45461;-76
2022/10/03 02:48:07;;;;;;;;;18.00;18.00;;;;;14.59;70.26;102349.38;5039890;28;46151;-76
2022/10/03 02:51:10;;;;;;;;;17.00;15.75;;;;;14.58;69.90;102347.63;5042884;28;45682;-77
2022/10/03 02:53:55;;;;;;;;;17.50;17.00;;;;;14.58;69.88;102355.59;5040323;28;45307;-76
2022/10/03 02:56:48;;;;;;;;;19.50;17.50;;;;;14.55;70.26;102346.72;5027159;28;45228;-76
2022/10/03 02:59:13;;;;;;;;;17.00;16.75;;;;;14.58;70.77;102345.84;5030068;28;45646;-76
2022/10/03 03:02:33;;;;;;;;;17.25;15.75;;;;;14.58;70.18;102343.22;5038796;28;45261;-76
2022/10/03 03:05:19;;;;;;;;;15.50;14.50;;;;;14.54;69.81;102342.31;5017241;28;45368;-76
2022/10/03 03:08:08;;;;;;;;;20.75;19.50;;;;;14.55;69.63;102345.84;5017854;28;45474;-76
2022/10/03 03:10:52;;;;;;;;;19.75;18.00;;;;;14.52;69.59;102348.44;5025292;28;46422;-76
2022/10/03 03:13:45;;;;;;;;;20.25;18.75;;;;;14.53;69.83;102347.59;5039734;28;45387;-76
2022/10/03 03:16:39;;;;;;;;;18.00;16.75;;;;;14.53;69.88;102353.78;5039793;28;45444;-76
2022/10/03 03:19:32;;;;;;;;;18.25;17.75;;;;;14.56;69.92;102353.78;5026545;28;45385;-76
2022/10/03 03:22:13;;;;;;;;;20.75;17.50;;;;;14.58;70.24;102353.81;5038492;28;47434;-76
2022/10/03 03:24:38;;;;;;;;;19.75;19.25;;;;;14.60;69.96;102346.75;5039451;28;45180;-76
2022/10/03 03:27:23;;;;;;;;;19.25;19.25;;;;;14.62;70.27;102350.31;5038176;28;45490;-76
2022/10/03 03:30:09;;;;;;;;;18.75;16.25;;;;;14.63;69.79;102344.13;5038374;28;45244;-76
2022/10/03 03:32:54;;;;;;;;;15.75;15.25;;;;;14.65;69.80;102346.75;5036176;28;46451;-77
2022/10/03 03:35:35;;;;;;;;;17.50;13.75;;;;;14.64;69.83;102345.00;5039539;28;45295;-77
2022/10/03 03:38:34;;;;;;;;;13.25;13.25;;;;;14.64;69.61;102348.53;5038463;28;45414;-76
2022/10/03 03:41:02;;;;;;;;;15.00;14.25;;;;;14.65;70.01;102349.41;5018461;28;45498;-77
2022/10/03 03:43:43;;;;;;;;;18.25;16.75;;;;;14.68;69.61;102349.47;5034181;28;45442;-77
2022/10/03 03:46:42;;;;;;;;;18.00;18.00;;;;;14.68;69.74;102350.34;5038956;28;45437;-76
2022/10/03 03:49:29;;;;;;;;;15.50;14.25;;;;;14.73;69.89;102353.91;5027826;28;45323;-77
2022/10/03 03:52:08;;;;;;;;;17.25;17.25;;;;;14.70;69.21;102342.38;5039190;28;45437;-76
2022/10/03 03:54:49;;;;;;;;;23.50;22.00;;;;;14.78;69.35;102351.25;5037933;28;47350;-76
2022/10/03 03:57:50;;;;;;;;;22.00;18.75;;;;;14.79;69.61;102350.38;5018165;28;45397;-76
2022/10/03 04:00:19;;;;;;;;;22.25;19.25;;;;;14.82;69.59;102352.16;5007455;28;45360;-76
2022/10/03 04:03:00;;;;;;;;;28.50;24.00;;;;;14.80;69.55;102346.84;5038102;28;45418;-76
2022/10/03 04:05:53;;;;;;;;;32.75;26.00;;;;;14.72;69.67;102335.31;5037965;28;47850;-77
2022/10/03 04:08:27;;;;;;;;;32.50;26.75;;;;;14.78;69.92;102349.50;5037621;28;46197;-76
2022/10/03 04:11:16;;;;;;;;;28.75;23.00;;;;;14.81;70.43;102348.63;5038050;28;45239;-76
2022/10/03 04:14:12;;;;;;;;;23.00;19.25;;;;;14.77;70.55;102339.75;5039359;28;45226;-77
2022/10/03 04:20:14;;;;;;;;;19.25;19.00;;;;;14.68;70.50;102354.75;5041375;28;45752;-76
2022/10/03 04:22:40;;;;;;;;;23.75;20.75;;;;;14.64;71.45;102347.66;5041586;28;45458;-76
2022/10/03 04:25:40;;;;;;;;;16.50;11.50;;;;;14.63;71.46;102348.53;5041230;28;45581;-77
2022/10/03 04:28:12;;;;;;;;;17.00;16.00;;;;;14.64;71.24;102352.94;5041289;28;45220;-76
2022/10/03 04:30:52;;;;;;;;;17.75;17.75;;;;;14.59;71.51;102338.78;5041956;28;45437;-77
2022/10/03 04:33:40;;;;;;;;;25.50;19.50;;;;;14.62;71.49;102346.75;5041294;28;45306;-77
2022/10/03 04:36:29;;;;;;;;;21.00;17.75;;;;;14.60;71.43;102345.88;5028691;28;45521;-77
2022/10/03 04:39:27;;;;;;;;;20.25;16.50;;;;;14.59;72.06;102352.91;5040482;28;47973;-76
2022/10/03 04:42:00;;;;;;;;;23.00;20.00;;;;;14.57;71.70;102352.06;5042917;28;45434;-76
2022/10/03 04:44:34;;;;;;;;;22.50;19.50;;;;;14.60;71.85;102352.06;5040965;28;45248;-77
2022/10/03 04:47:05;;;;;;;;;20.25;19.00;;;;;14.63;71.56;102353.84;5041504;28;45401;-76
2022/10/03 04:49:42;;;;;;;;;19.75;17.25;;;;;14.67;71.53;102358.25;5041953;28;45443;-77
2022/10/03 04:52:16;;;;;;;;;24.25;20.75;;;;;14.62;71.87;102349.41;5041809;28;45331;-76
2022/10/03 04:54:47;;;;;;;;;22.50;20.75;;;;;14.64;71.53;102359.13;5041990;28;45498;-76
2022/10/03 04:57:46;;;;;;;;;11.25;11.25;;;;;14.63;71.46;102361.78;5042406;28;45153;-77
2022/10/03 05:00:28;;;;;;;;;16.00;14.00;;;;;14.61;71.60;102360.91;5030008;28;46545;-77
2022/10/03 05:03:03;;;;;;;;;19.75;16.25;;;;;14.56;71.79;102364.38;5040142;28;45353;-77
2022/10/03 05:05:54;;;;;;;;;15.25;15.25;;;;;14.50;71.74;102353.72;5041964;28;45371;-76
2022/10/03 05:09:14;;;;;;;;;15.50;14.75;;;;;14.49;71.62;102356.38;5027699;28;45301;-77
2022/10/03 05:11:58;;;;;;;;;16.50;13.00;;;;;14.42;72.08;102341.31;5020790;28;45510;-77
2022/10/03 05:14:36;;;;;;;;;20.00;18.75;;;;;14.41;71.73;102350.16;5041429;28;45437;-77
2022/10/03 05:17:25;;;;;;;;;16.50;12.50;;;;;14.43;71.66;102351.91;5039655;28;45421;-77
2022/10/03 05:19:50;;;;;;;;;12.25;10.50;;;;;14.43;72.14;102351.03;5029365;28;45434;-76
2022/10/03 05:22:52;;;;;;;;;17.25;15.75;;;;;14.38;71.81;102347.47;5041458;28;45231;-76
2022/10/03 05:25:20;;;;;;;;;15.00;14.50;;;;;14.39;72.05;102365.16;5015509;28;45452;-76
2022/10/03 05:28:00;;;;;;;;;17.75;16.75;;;;;14.39;72.08;102365.16;5039206;28;45345;-76
2022/10/03 05:30:41;;;;;;;;;18.25;18.25;;;;;14.36;72.21;102360.72;5039788;28;45603;-76
2022/10/03 05:33:30;;;;;;;;;19.00;16.00;;;;;14.38;71.91;102363.34;5041398;28;46283;-76
2022/10/03 05:36:24;;;;;;;;;24.50;18.00;;;;;14.40;72.26;102366.91;5039558;28;45297;-76
2022/10/03 05:39:14;;;;;;;;;21.75;18.00;;;;;14.41;72.52;102376.66;5041067;28;45319;-76
2022/10/03 05:41:50;;;;;;;;;18.50;15.75;;;;;14.39;72.16;102366.03;5041117;28;45220;-76
2022/10/03 05:44:19;;;;;;;;;22.50;20.75;;;;;14.41;72.02;102381.94;5039564;28;47126;-76
2022/10/03 05:50:35;;;;;;;;;19.00;16.00;;;;;14.41;72.11;102353.69;5041136;28;45300;-76
2022/10/03 05:53:27;;;;;;;;;17.25;15.25;;;;;14.43;72.38;102356.31;5040912;28;45596;-77
2022/10/03 05:56:09;;;;;;;;;23.25;18.25;;;;;14.44;72.20;102356.34;5040862;28;45362;-77
2022/10/03 05:59:13;;;;;;;;;18.25;15.50;;;;;14.50;72.51;102360.78;5035915;28;45371;-78
2022/10/03 06:01:38;;;;;;;;;18.25;17.75;;;;;14.51;72.24;102351.97;5037759;28;45382;-77
2022/10/03 06:04:36;;;;;;;;;46.25;38.50;;;;;14.50;72.16;102345.78;5040899;28;45343;-76
2022/10/03 06:07:19;;;;;;;;;18.25;18.25;;;;;14.46;72.40;102332.50;5028943;28;48413;-77
2022/10/03 06:10:14;;;;;;;;;18.00;18.00;;;;;14.50;72.14;102344.91;5040258;28;45312;-77
2022/10/03 06:12:58;;;;;;;;;19.50;17.75;;;;;14.48;72.65;102344.88;5039214;28;45324;-77
2022/10/03 06:15:57;;;;;;;;;28.25;24.75;;;;;14.50;72.40;102347.53;5040603;28;45511;-77
2022/10/03 06:19:02;;;;;;;;;23.25;21.75;;;;;14.53;72.88;102359.06;5035772;28;45300;-77
2022/10/03 06:21:43;;;;;;;;;23.50;22.00;;;;;14.56;72.98;102367.03;5044381;28;45354;-77
2022/10/03 06:24:19;;;;;;;;;20.00;18.50;;;;;14.61;72.51;102361.78;5040380;28;45486;-77
2022/10/03 06:26:57;;;;;;;;;20.25;20.25;;;;;14.61;72.31;102359.13;5038949;28;45526;-77
2022/10/03 06:29:31;;;;;;;;;21.50;20.00;;;;;14.71;72.19;102360.06;5040462;28;45491;-77
2022/10/03 06:32:30;;;;;;;;;19.00;18.50;;;;;14.67;72.36;102348.53;5038562;28;45470;-77
2022/10/03 06:35:24;;;;;;;;;18.75;18.50;;;;;14.69;71.98;102353.88;5031412;28;45290;-81
2022/10/03 06:38:08;;;;;;;;;19.75;17.25;;;;;14.66;72.14;102362.69;5028912;28;45626;-79
2022/10/03 06:41:08;;;;;;;;;20.25;18.00;;;;;14.66;72.35;102367.13;5039118;28;48331;-79
2022/10/03 06:44:02;;;;;;;;;20.75;16.50;;;;;14.68;72.89;102366.25;5040232;28;45373;-79
2022/10/03 06:47:03;;;;;;;;;20.25;18.50;;;;;14.73;72.69;102371.56;5034451;28;45344;-79
2022/10/03 06:49:47;;;;;;;;;20.00;17.25;;;;;14.75;72.09;102368.06;5046881;28;45533;-80
2022/10/03 06:52:37;;;;;;;;;19.25;17.25;;;;;14.74;72.15;102368.91;5020041;28;45339;-79
2022/10/03 06:55:19;;;;;;;;;20.25;18.50;;;;;14.78;71.75;102383.06;5035824;28;45275;-80
2022/10/03 06:58:14;;;;;;;;;19.25;16.50;;;;;14.83;71.87;102389.28;5037993;28;45289;-80
2022/10/03 07:01:06;;;;;;;;;23.25;18.75;;;;;14.85;71.67;102384.88;5030264;28;45178;-78
2022/10/03 07:03:50;;;;;;;;;16.25;13.00;;;;;14.88;71.52;102394.63;5042457;28;47282;-79
2022/10/03 07:06:38;;;;;;;;;14.00;11.25;;;;;14.89;71.25;102394.63;5037624;28;45465;-79
2022/10/03 07:09:27;;;;;;;;;16.50;15.25;;;;;14.88;71.05;102394.63;5039615;28;45477;-79
2022/10/03 07:12:20;;;;;;;;;17.25;16.25;;;;;14.77;70.61;102392.78;5029663;28;45345;-79
2022/10/03 07:15:04;;;;;;;;;16.00;14.50;;;;;14.76;70.47;102398.09;5042180;28;48692;-79
2022/10/03 07:17:42;;;;;;;;;13.00;13.00;;;;;14.66;69.92;102394.50;5032461;28;45278;-80
2022/10/03 07:20:22;;;;;;;;;11.25;11.25;;;;;14.57;70.18;102397.09;5040188;28;45487;-79
2022/10/03 07:23:27;;;;;;;;;16.50;13.75;;;;;14.55;69.98;102412.97;5039805;28;45577;-79
2022/10/03 07:26:17;;;;;;;;;14.50;11.00;;;;;14.52;70.13;102409.41;5040110;28;46162;-82
2022/10/03 07:28:51;;;;;;;;;14.75;14.25;;;;;14.50;70.34;102412.03;5040550;28;45280;-82
2022/10/03 07:31:44;;;;;;;;;12.25;12.25;;;;;14.50;69.88;102413.81;5039901;28;45448;-79
2022/10/03 07:35:00;;;;;;;;;13.00;12.25;;;;;14.50;70.04;102419.97;5039495;28;45958;-79
2022/10/03 07:40:54;;;;;;;;;11.75;10.25;;;;;14.51;69.50;102419.13;5039097;28;45308;-78
2022/10/03 07:43:45;;;;;;;;;12.00;12.00;;;;;14.56;69.20;102416.50;5037758;28;45419;-78
2022/10/03 07:46:32;;;;;;;;;18.25;15.25;;;;;14.55;69.48;102417.41;5036623;28;45446;-78
2022/10/03 07:49:17;;;;;;;;;12.00;11.00;;;;;14.59;69.34;102423.59;5034180;28;46232;-77
2022/10/03 07:52:10;;;;;;;;;14.25;12.50;;;;;14.64;69.18;102424.53;5037031;28;45283;-78
2022/10/03 07:55:18;;;;;;;;;16.75;14.00;;;;;14.66;69.00;102428.06;5041593;28;45376;-77
2022/10/03 07:57:56;;;;;;;;;14.25;13.50;;;;;14.72;68.92;102434.28;5037933;28;45831;-79
2022/10/03 08:00:26;;;;;;;;;15.75;13.25;;;;;14.74;69.32;102432.53;5041173;28;46596;-79
2022/10/03 08:03:24;;;;;;;;;18.25;16.25;;;;;14.73;68.79;102441.38;5041963;28;45338;-78
2022/10/03 08:05:59;;;;;;;;;17.50;15.25;;;;;14.73;68.21;102430.78;5040993;28;45402;-78
2022/10/03 08:08:57;;;;;;;;;16.75;16.25;;;;;14.82;68.92;102437.91;5042234;28;45355;-79
2022/10/03 08:11:47;;;;;;;;;15.25;14.50;;;;;14.88;69.12;102443.22;5043042;28;45378;-78
2022/10/03 08:14:17;;;;;;;;;15.25;14.00;;;;;14.93;68.72;102441.50;5042245;28;45280;-79
2022/10/03 08:17:12;;;;;;;;;18.50;18.25;;;;;14.97;68.78;102438.00;5039236;28;45433;-83
2022/10/03 08:20:07;;;;;;;;;19.25;18.00;;;;;15.03;68.70;102423.00;5038730;28;45580;-82
2022/10/03 08:22:45;;;;;;;;;22.00;18.25;;;;;15.21;68.53;102426.63;5040598;28;45501;-81
2022/10/03 08:25:39;;;;;;;;;21.25;19.25;;;;;15.24;68.62;102420.44;5043762;28;45271;-81
2022/10/03 08:28:07;;;;;;;;;17.00;15.75;;;;;15.36;68.10;102446.13;5031931;28;45421;-80
2022/10/03 08:30:46;;;;;;;;;22.50;20.00;;;;;15.35;67.84;102428.44;5040931;28;45297;-80
2022/10/03 08:33:41;;;;;;;;;21.00;17.00;;;;;15.37;67.74;102414.28;5040484;28;47343;-79
2022/10/03 08:36:28;;;;;;;;;17.50;16.25;;;;;15.51;67.72;102421.41;5029489;28;45414;-78
2022/10/03 08:39:23;;;;;;;;;24.00;22.50;;;;;15.58;67.59;102426.75;5040236;28;45260;-78
2022/10/03 08:42:20;;;;;;;;;21.75;18.00;;;;;15.72;67.45;102423.28;5040385;28;45736;-77
2022/10/03 08:44:51;;;;;;;;;21.50;18.00;;;;;15.84;67.22;102417.97;5036993;28;46615;-76
2022/10/03 08:47:25;;;;;;;;;22.00;21.75;;;;;15.88;66.81;102425.94;5040735;28;45354;-76
2022/10/03 08:50:26;;;;;;;;;26.00;24.50;;;;;15.91;66.49;102422.41;5041624;28;45663;-76
2022/10/03 08:56:34;;;;;;;;;21.50;19.75;;;;;15.97;66.21;102414.44;5034287;28;45481;-78
2022/10/03 08:59:22;;;;;;;;;22.50;19.25;;;;;15.99;66.02;102423.28;5036946;28;45244;-74
2022/10/03 09:02:03;;;;;;;;;21.50;19.75;;;;;16.02;65.87;102428.59;5040245;28;45299;-75
2022/10/03 09:04:55;;;;;;;;;21.50;20.75;;;;;16.05;65.56;102425.94;5039492;28;45470;-75
2022/10/03 09:07:42;;;;;;;;;21.50;19.50;;;;;16.13;65.69;102428.63;5039773;28;47171;-78
2022/10/03 09:10:34;;;;;;;;;15.25;14.50;;;;;16.20;65.52;102441.03;5045309;28;46018;-76
2022/10/03 09:13:13;;;;;;;;;22.75;19.25;;;;;16.21;65.04;102449.88;5039914;28;45636;-81
2022/10/03 09:16:13;;;;;;;;;20.50;15.50;;;;;16.25;65.09;102459.59;5039012;28;45421;-75
2022/10/03 09:18:47;;;;;;;;;20.75;18.75;;;;;16.29;64.95;102450.75;5041102;28;46108;-76
2022/10/03 09:21:48;;;;;;;;;19.25;17.50;;;;;16.34;64.59;102450.78;5039775;28;45701;-77
2022/10/03 09:24:47;;;;;;;;;17.00;14.00;;;;;16.36;64.66;102448.97;5041197;28;45328;-77
2022/10/03 09:27:18;;;;;;;;;15.25;15.25;;;;;16.38;64.46;102458.72;5040586;28;45330;-77
2022/10/03 09:30:52;;;;;;;;;19.50;18.00;;;;;16.41;64.40;102465.81;5041001;28;45750;-76
2022/10/03 09:33:39;;;;;;;;;20.75;19.25;;;;;16.48;63.95;102463.16;5018879;28;45376;-83
2022/10/03 09:36:21;;;;;;;;;16.25;16.00;;;;;16.45;64.07;102460.50;5002694;28;45489;-77
2022/10/03 09:38:53;;;;;;;;;20.50;17.75;;;;;16.53;64.02;102460.50;5011218;28;46257;-78
2022/10/03 09:41:39;;;;;;;;;11.25;11.25;;;;;16.60;63.82;102464.03;5039795;28;45440;-77
2022/10/03 09:44:56;;;;;;;;;17.00;17.00;;;;;16.62;64.09;102464.91;5026566;28;45519;-78
2022/10/03 09:47:33;;;;;;;;;17.25;15.75;;;;;16.67;63.87;102464.00;5024078;28;45746;-76
2022/10/03 09:50:29;;;;;;;;;16.25;15.50;;;;;16.68;63.59;102460.50;5035180;28;45523;-79
2022/10/03 09:53:17;;;;;;;;;15.00;14.00;;;;;16.63;63.35;102459.59;5042233;28;48628;-80
2022/10/03 09:56:01;;;;;;;;;15.75;15.00;;;;;16.64;63.43;102455.16;5027334;28;45368;-78
2022/10/03 09:59:04;;;;;;;;;19.00;17.00;;;;;16.65;63.36;102455.19;5024028;28;45300;-78
2022/10/03 10:01:51;;;;;;;;;23.25;18.00;;;;;16.68;63.09;102443.63;5018085;28;45876;-79
2022/10/03 10:04:42;;;;;;;;;18.25;17.00;;;;;16.71;62.97;102427.69;5026169;28;46223;-78
2022/10/03 10:07:22;;;;;;;;;22.75;20.00;;;;;16.79;63.26;102436.56;5022229;28;45448;-79
2022/10/03 10:10:25;;;;;;;;;19.75;19.00;;;;;16.87;62.82;102434.78;5003521;28;45982;-78
2022/10/03 10:13:24;;;;;;;;;16.75;16.00;;;;;16.95;63.03;102440.06;4983129;28;45373;-80
2022/10/03 10:16:17;;;;;;;;;19.75;15.50;;;;;17.06;62.48;102440.91;4998006;28;46568;-79
2022/10/03 10:18:57;;;;;;;;;21.50;18.75;;;;;17.16;62.47;102442.66;4993499;28;45462;-79
2022/10/03 10:21:28;;;;;;;;;18.25;18.25;;;;;17.18;62.02;102442.63;4997111;28;45410;-79
2022/10/03 10:24:16;;;;;;;;;15.25;15.00;;;;;17.14;61.53;102439.13;5013766;28;45528;-81
2022/10/03 10:26:44;;;;;;;;;21.00;18.50;;;;;17.14;61.39;102444.44;4981278;28;45481;-82
2022/10/03 10:29:47;;;;;;;;;18.00;16.25;;;;;17.16;61.57;102445.31;4992547;28;45919;-80
2022/10/03 10:32:34;;;;;;;;;15.75;15.75;;;;;17.19;61.72;102431.13;5009850;28;45549;-82
2022/10/03 10:35:15;;;;;;;;;28.25;26.25;;;;;17.28;61.59;102441.72;5006223;28;45757;-81
2022/10/03 10:38:03;;;;;;;;;18.50;16.00;;;;;17.33;61.31;102434.59;4991571;28;48065;-83
2022/10/03 10:41:07;;;;;;;;;17.75;16.75;;;;;17.41;61.29;102429.25;5014140;28;45983;-83
2022/10/03 10:44:08;;;;;;;;;20.25;18.25;;;;;17.52;61.45;102429.19;4995645;28;45767;-85
2022/10/03 10:47:07;;;;;;;;;21.00;20.75;;;;;17.66;61.14;102419.31;4996040;28;45606;-83
2022/10/03 10:50:04;;;;;;;;;18.50;18.00;;;;;17.76;60.60;102421.03;4995835;28;46777;-83
2022/10/03 10:53:03;;;;;;;;;19.50;17.75;;;;;17.85;60.81;102428.09;4996284;28;45384;-84
2022/10/03 10:55:55;;;;;;;;;18.00;16.50;;;;;17.92;60.27;102429.84;4996980;28;45424;-84
2022/10/03 10:58:45;;;;;;;;;34.00;28.75;;;;;18.00;60.34;102441.31;4997190;28;45534;-82
2022/10/03 11:01:26;;;;;;;;;17.00;17.00;;;;;18.07;59.97;102437.72;4989417;28;47059;-86
2022/10/03 11:04:29;;;;;;;;;15.75;15.75;;;;;18.18;59.49;102421.66;5012995;28;45391;-85
2022/10/03 11:07:10;;;;;;;;;17.00;17.00;;;;;18.40;59.66;102434.78;4989942;28;45546;-85
2022/10/03 11:09:54;;;;;;;;;20.00;18.50;;;;;18.54;58.69;102437.31;4997016;28;45613;-86
2022/10/03 11:12:48;;;;;;;;;21.00;19.50;;;;;18.66;58.60;102429.22;5017439;28;46797;-86
2022/10/03 11:16:10;;;;;;;;;25.75;24.00;;;;;18.72;57.60;102413.13;5012387;28;45469;-86
2022/10/03 11:19:07;;;;;;;;;20.50;20.25;;;;;18.77;57.54;102426.47;5033706;28;45534;-86
2022/10/03 11:21:41;;;;;;;;;20.25;19.50;;;;;18.78;57.76;102414.88;5027094;28;45317;-85
2022/10/03 11:24:15;;;;;;;;;21.25;19.00;;;;;18.85;57.76;102422.81;4997820;28;46812;-86
2022/10/03 11:27:22;;;;;;;;;21.50;19.75;;;;;18.90;57.26;102420.97;4993445;28;45421;-86
2022/10/03 11:30:06;;;;;;;;;19.75;19.00;;;;;18.86;57.16;102413.88;5014536;28;45496;-86
2022/10/03 11:33:04;;;;;;;;;19.25;18.25;;;;;18.88;56.99;102404.09;4994875;28;45802;-86
2022/10/03 11:35:48;;;;;;;;;21.25;21.25;;;;;18.98;56.83;102406.63;4990554;28;45443;-84
2022/10/03 11:38:21;;;;;;;;;25.75;23.50;;;;;19.14;57.34;102405.56;4990824;28;45513;-85
2022/10/03 11:41:01;;;;;;;;;19.00;19.00;;;;;19.26;56.83;102399.16;4985364;28;45460;-86
2022/10/03 11:43:50;;;;;;;;;17.75;16.25;;;;;19.37;56.59;102391.88;4994647;28;45502;-86
2022/10/03 11:46:37;;;;;;;;;22.00;20.00;;;;;19.50;56.34;102397.94;5013134;28;47264;-85
2022/10/03 11:49:05;;;;;;;;;18.00;16.50;;;;;19.54;55.82;102396.97;5007082;28;45670;-86
2022/10/03 11:51:44;;;;;;;;;21.25;20.50;;;;;19.56;55.21;102393.38;5013333;28;45507;-85
2022/10/03 11:54:17;;;;;;;;;16.00;15.25;;;;;19.55;55.13;102401.44;4988289;28;45381;-85
2022/10/03 11:56:49;;;;;;;;;23.75;22.25;;;;;19.58;55.25;102401.38;5011490;28;46981;-85
2022/10/03 11:59:50;;;;;;;;;20.50;20.25;;;;;19.61;55.42;102398.66;4996667;28;45390;-85
2022/10/03 12:02:44;;;;;;;;;25.50;22.75;;;;;19.71;54.99;102394.97;5004328;28;45502;-85
2022/10/03 12:05:51;;;;;;;;;23.75;21.50;;;;;20.27;54.53;102389.63;5009205;28;45598;-85
2022/10/03 12:11:26;;;;;;;;;24.25;22.50;;;;;20.68;53.50;102388.84;4995938;28;45459;-84
2022/10/03 12:14:06;;;;;;;;;26.75;22.75;;;;;20.79;53.22;102383.28;4981861;28;45569;-84
2022/10/03 12:16:50;;;;;;;;;29.50;21.75;;;;;21.54;53.06;102392.44;4997461;28;45466;-85
2022/10/03 12:19:32;;;;;;;;;16.75;15.00;;;;;22.15;52.28;102381.13;5010831;28;46263;-85
2022/10/03 12:22:19;;;;;;;;;15.75;14.00;;;;;22.74;50.90;102383.13;4997611;28;45380;-85
2022/10/03 12:24:47;;;;;;;;;26.25;22.00;;;;;22.99;50.07;102383.31;5014283;28;45530;-85
2022/10/03 12:27:29;;;;;;;;;23.75;23.75;;;;;23.38;49.44;102369.63;4996563;28;45497;-85
2022/10/03 12:29:57;;;;;;;;;19.25;18.25;;;;;23.13;47.55;102370.38;4984718;28;47984;-86
2022/10/03 12:32:50;;;;;;;;;22.50;19.75;;;;;23.07;48.66;102360.69;4999100;28;45312;-86
2022/10/03 12:35:37;;;;;;;;;19.25;18.00;;;;;22.94;48.32;102366.47;4992386;28;45356;-85
2022/10/03 12:38:11;;;;;;;;;17.50;17.50;;;;;22.66;47.69;102367.22;5015188;28;45530;-85
2022/10/03 12:40:42;;;;;;;;;21.00;18.75;;;;;23.49;49.00;102359.41;5000852;28;48392;-86
2022/10/03 12:43:07;;;;;;;;;16.75;16.00;;;;;25.94;47.84;102355.78;5015905;28;45419;-86
2022/10/03 12:45:42;;;;;;;;;19.75;17.75;;;;;28.21;45.21;102354.16;5014135;28;45574;-86
2022/10/03 12:48:38;;;;;;;;;13.50;13.25;;;;;30.21;41.01;102352.81;4992445;28;45426;-85
2022/10/03 12:51:23;;;;;;;;;21.75;18.75;;;;;31.45;34.83;102349.53;4991535;28;46487;-86
2022/10/03 12:53:56;;;;;;;;;20.00;18.75;;;;;32.17;36.22;102352.81;4998276;28;45586;-86
2022/10/03 12:56:34;;;;;;;;;17.33;16.00;;;;;33.21;34.70;102343.63;5016443;28;45659;-86